createdAt,value
2023-04-21T00:00:43.108Z,16.92
2023-04-21T00:03:34.342Z,17.02
2023-04-21T00:06:23.622Z,17.08
2023-04-21T00:09:12.043Z,17.48
2023-04-21T00:11:59.606Z,17.58
2023-04-21T00:14:46.940Z,17.25
2023-04-21T00:17:35.212Z,16.98
2023-04-21T00:20:27.168Z,17.95
2023-04-21T00:23:17.675Z,17.38
2023-04-21T00:26:09.849Z,17.90
2023-04-21T00:29:02.171Z,18.63
2023-04-21T00:34:39.280Z,18.58
2023-04-21T00:37:31.260Z,18.63
2023-04-21T00:40:23.922Z,18.85
2023-04-21T00:43:11.729Z,19.80
2023-04-21T00:46:02.361Z,19.30
2023-04-21T00:48:52.787Z,18.88
2023-04-21T00:51:49.234Z,19.42
2023-04-21T00:54:38.843Z,19.83
2023-04-21T00:57:26.407Z,20.08
2023-04-21T01:00:17.995Z,19.40
2023-04-21T01:03:08.365Z,18.92
2023-04-21T01:05:58.903Z,19.58
2023-04-21T01:08:54.687Z,18.55
2023-04-21T01:12:02.548Z,18.40
2023-04-21T01:14:55.042Z,17.70
2023-04-21T01:17:42.603Z,17.17
2023-04-21T01:20:30.645Z,19.52
2023-04-21T01:23:24.380Z,19.02
2023-04-21T01:26:16.495Z,19.92
2023-04-21T01:29:09.778Z,18.48
2023-04-21T01:31:59.033Z,18.42
2023-04-21T01:34:50.295Z,18.52
2023-04-21T01:37:44.104Z,18.13
2023-04-21T01:40:37.945Z,18.98
2023-04-21T01:43:30.922Z,18.05
2023-04-21T01:46:21.366Z,18.38
2023-04-21T01:49:09.789Z,18.85
2023-04-21T01:51:59.808Z,18.05
2023-04-21T01:54:47.169Z,16.70
2023-04-21T01:57:40.627Z,17.92
2023-04-21T02:00:32.291Z,18.38
2023-04-21T02:03:25.811Z,18.15
2023-04-21T02:06:15.071Z,17.55
2023-04-21T02:09:02.725Z,17.80
2023-04-21T02:11:55.140Z,17.30
2023-04-21T02:14:48.507Z,17.95
2023-04-21T02:17:43.102Z,17.52
2023-04-21T02:20:31.043Z,18.45
2023-04-21T02:23:24.364Z,17.45
2023-04-21T02:29:02.721Z,19.33
2023-04-21T02:32:03.109Z,18.92
2023-04-21T02:35:03.584Z,18.42
2023-04-21T02:37:52.009Z,19.27
2023-04-21T02:40:39.925Z,19.95
2023-04-21T02:43:31.069Z,20.80
2023-04-21T02:46:27.781Z,20.13
2023-04-21T02:49:17.115Z,20.42
2023-04-21T02:52:06.476Z,20.17
2023-04-21T02:54:54.184Z,20.23
2023-04-21T02:57:41.623Z,21.10
2023-04-21T03:00:31.862Z,21.55
2023-04-21T03:03:19.611Z,21.92
2023-04-21T03:06:11.620Z,21.67
2023-04-21T03:09:00.187Z,22.48
2023-04-21T03:11:48.030Z,24.55
2023-04-21T03:14:39.554Z,21.98
2023-04-21T03:17:28.577Z,21.88
2023-04-21T03:20:17.264Z,22.50
2023-04-21T03:23:09.409Z,21.17
2023-04-21T03:25:59.278Z,21.92
2023-04-21T03:28:47.126Z,22.23
2023-04-21T03:31:34.383Z,21.90
2023-04-21T03:34:22.059Z,21.08
2023-04-21T03:37:12.742Z,20.50
2023-04-21T03:40:02.817Z,20.27
2023-04-21T03:42:50.324Z,21.33
2023-04-21T03:45:40.324Z,21.50
2023-04-21T03:48:29.895Z,20.83
2023-04-21T03:51:28.720Z,20.60
2023-04-21T03:54:15.766Z,20.92
2023-04-21T03:57:04.999Z,19.55
2023-04-21T03:59:56.049Z,19.90
2023-04-21T04:02:44.072Z,20.45
2023-04-21T04:05:31.754Z,20.33
2023-04-21T04:08:20.610Z,21.02
2023-04-21T04:11:11.026Z,21.17
2023-04-21T04:14:08.459Z,19.50
2023-04-21T04:16:56.021Z,19.75
2023-04-21T04:19:44.378Z,18.48
2023-04-21T04:22:31.936Z,19.00
2023-04-21T04:25:22.021Z,18.25
2023-04-21T04:28:13.062Z,17.92
2023-04-21T04:31:04.453Z,17.40
2023-04-21T04:33:54.685Z,17.77
2023-04-21T04:36:43.622Z,17.65
2023-04-21T04:39:35.049Z,17.58
2023-04-21T04:42:22.595Z,18.55
2023-04-21T04:45:17.483Z,17.25
2023-04-21T04:48:17.469Z,16.77
2023-04-21T04:51:09.719Z,17.80
2023-04-21T04:54:04.009Z,18.52
2023-04-21T04:56:57.384Z,18.70
2023-04-21T04:59:49.559Z,19.35
2023-04-21T05:02:43.247Z,19.58
2023-04-21T05:05:45.231Z,19.52
2023-04-21T05:08:38.946Z,19.63
2023-04-21T05:11:37.194Z,18.80
2023-04-21T05:14:30.095Z,18.48
2023-04-21T05:17:30.568Z,18.10
2023-04-21T05:20:20.665Z,18.63
2023-04-21T05:23:34.536Z,19.02
2023-04-21T05:26:26.544Z,20.00
2023-04-21T05:29:24.564Z,19.17
2023-04-21T05:32:20.605Z,21.52
2023-04-21T05:35:14.697Z,20.85
2023-04-21T05:38:16.548Z,17.15
2023-04-21T05:41:14.431Z,19.33
2023-04-21T05:44:09.461Z,17.02
2023-04-21T05:47:08.485Z,18.45
2023-04-21T05:50:00.641Z,17.17
2023-04-21T05:52:52.229Z,17.80
2023-04-21T05:55:46.911Z,17.23
2023-04-21T05:58:44.377Z,18.27
2023-04-21T06:01:37.938Z,17.10
2023-04-21T06:04:28.242Z,15.95
2023-04-21T06:07:22.227Z,16.48
2023-04-21T06:10:13.865Z,17.27
2023-04-21T06:13:05.939Z,16.67
2023-04-21T06:15:57.297Z,17.45
2023-04-21T06:18:46.813Z,16.10
2023-04-21T06:21:34.720Z,16.52
2023-04-21T06:24:25.773Z,14.77
2023-04-21T06:27:20.755Z,14.85
2023-04-21T06:30:15.314Z,14.82
2023-04-21T06:33:03.019Z,13.85
2023-04-21T06:35:50.458Z,14.32
2023-04-21T06:38:40.063Z,15.07
2023-04-21T06:41:27.177Z,15.15
2023-04-21T06:44:14.364Z,15.38
2023-04-21T06:47:02.945Z,13.82
2023-04-21T06:49:49.989Z,14.10
2023-04-21T06:52:37.472Z,14.27
2023-04-21T06:55:24.844Z,13.63
2023-04-21T06:58:12.504Z,13.63
2023-04-21T07:01:07.765Z,13.52
2023-04-21T07:03:57.844Z,12.73
2023-04-21T07:06:48.815Z,13.02
2023-04-21T07:09:36.696Z,12.75
2023-04-21T07:12:24.395Z,13.05
2023-04-21T07:15:16.833Z,13.05
2023-04-21T07:18:04.723Z,13.05
2023-04-21T07:20:56.933Z,12.38
2023-04-21T07:23:46.816Z,13.40
2023-04-21T07:26:34.876Z,12.57
2023-04-21T07:29:22.395Z,12.27
2023-04-21T07:32:12.092Z,12.20
2023-04-21T07:35:03.732Z,11.82
2023-04-21T07:38:02.874Z,12.02
2023-04-21T07:40:53.916Z,11.57
2023-04-21T07:43:47.584Z,10.80
2023-04-21T07:46:40.038Z,10.80
2023-04-21T07:49:33.494Z,10.80
2023-04-21T07:52:53.458Z,10.73
2023-04-21T07:55:35.676Z,9.95
2023-04-21T07:58:30.940Z,10.32
2023-04-21T08:01:21.272Z,9.48
2023-04-21T08:04:13.746Z,9.55
2023-04-21T08:07:12.334Z,9.55
2023-04-21T08:19:11.549Z,9.23
2023-04-21T08:22:04.281Z,9.00
2023-04-21T08:25:00.821Z,8.95
2023-04-21T08:30:44.433Z,8.18
2023-04-21T08:33:46.833Z,9.15
2023-04-21T08:36:48.204Z,9.48
2023-04-21T08:39:47.692Z,8.85
2023-04-21T08:42:37.879Z,9.13
2023-04-21T08:45:46.859Z,7.68
2023-04-21T08:48:43.165Z,8.48
2023-04-21T08:51:35.592Z,7.55
2023-04-21T08:54:27.488Z,7.60
2023-04-21T08:57:20.786Z,8.00
2023-04-21T09:00:15.204Z,6.68
2023-04-21T09:03:22.995Z,6.05
2023-04-21T09:06:20.650Z,7.07
2023-04-21T09:09:13.744Z,6.50
2023-04-21T09:12:11.003Z,6.57
2023-04-21T09:15:13.950Z,6.40
2023-04-21T09:18:08.084Z,6.47
2023-04-21T09:21:13.291Z,7.15
2023-04-21T09:24:10.433Z,7.15
2023-04-21T09:27:03.039Z,7.22
2023-04-21T09:29:56.819Z,7.57
2023-04-21T09:32:53.735Z,6.40
2023-04-21T09:35:46.408Z,6.75
2023-04-21T09:41:39.383Z,6.88
2023-04-21T09:44:36.374Z,7.05
2023-04-21T09:47:39.605Z,7.50
2023-04-21T09:53:30.812Z,8.50
2023-04-21T09:56:27.492Z,8.07
2023-04-21T09:59:28.457Z,8.45
2023-04-21T10:02:31.022Z,7.68
2023-04-21T10:08:16.035Z,7.80
2023-04-21T10:11:10.155Z,7.50
2023-04-21T10:14:01.123Z,8.35
2023-04-21T10:17:10.501Z,7.93
2023-04-21T10:20:17.709Z,8.57
2023-04-21T10:23:17.176Z,7.82
2023-04-21T10:26:27.815Z,7.75
2023-04-21T10:29:55.465Z,6.20
2023-04-21T10:33:16.932Z,8.32
2023-04-21T10:36:24.312Z,7.72
2023-04-21T10:39:37.284Z,8.13
2023-04-21T10:42:55.990Z,7.88
2023-04-21T10:46:11.387Z,9.88
2023-04-21T10:49:27.389Z,10.20
2023-04-21T10:52:24.150Z,9.75
2023-04-21T10:55:20.219Z,11.25
2023-04-21T10:58:20.475Z,10.05
2023-04-21T11:01:17.028Z,10.75
2023-04-21T11:04:17.020Z,10.90
2023-04-21T11:07:12.850Z,10.85
2023-04-21T11:10:05.605Z,11.20
2023-04-21T11:13:02.445Z,11.02
2023-04-21T11:16:12.030Z,12.20
2023-04-21T11:19:02.724Z,11.93
2023-04-21T11:21:59.463Z,10.77
2023-04-21T11:24:57.698Z,10.90
2023-04-21T11:28:06.390Z,9.45
2023-04-21T11:31:06.793Z,10.45
2023-04-21T11:34:01.453Z,10.20
2023-04-21T11:36:53.218Z,9.68
2023-04-21T11:39:47.555Z,9.98
2023-04-21T11:42:43.683Z,9.18
2023-04-21T11:45:35.409Z,8.98
2023-04-21T11:48:35.917Z,8.05
2023-04-21T11:51:26.720Z,7.70
2023-04-21T11:54:24.819Z,7.55
2023-04-21T11:57:22.762Z,7.85
2023-04-21T12:00:19.070Z,7.22
2023-04-21T12:03:13.345Z,7.95
2023-04-21T12:06:09.136Z,8.20
2023-04-21T12:09:10.200Z,5.68
2023-04-21T12:12:09.274Z,7.43
2023-04-21T12:15:14.214Z,9.40
2023-04-21T12:18:08.910Z,9.25
2023-04-21T12:21:20.191Z,10.07
2023-04-21T12:24:19.900Z,6.57
2023-04-21T12:27:23.517Z,6.38
2023-04-21T12:30:14.761Z,8.55
2023-04-21T12:33:21.505Z,8.25
2023-04-21T12:39:22.667Z,5.25
2023-04-21T12:42:10.314Z,4.20
2023-04-21T12:44:58.449Z,4.20
2023-04-21T12:47:47.088Z,3.60
2023-04-21T12:50:35.183Z,3.83
2023-04-21T12:53:23.107Z,4.13
2023-04-21T12:56:12.041Z,3.20
2023-04-21T12:58:59.469Z,3.10
2023-04-21T13:01:47.117Z,2.40
2023-04-21T13:04:39.450Z,2.25
2023-04-21T13:07:34.161Z,2.13
2023-04-21T13:10:26.019Z,1.92
2023-04-21T13:13:21.187Z,1.90
2023-04-21T13:16:12.698Z,1.60
2023-04-21T13:19:06.616Z,1.73
2023-04-21T13:21:54.910Z,1.80
2023-04-21T13:24:45.670Z,2.00
2023-04-21T13:27:37.602Z,1.98
2023-04-21T13:30:26.728Z,1.80
2023-04-21T13:33:21.746Z,1.77
2023-04-21T13:36:13.733Z,1.70
2023-04-21T13:39:02.046Z,2.20
2023-04-21T13:41:54.377Z,2.53
2023-04-21T13:44:47.744Z,1.95
2023-04-21T13:50:26.755Z,2.10
2023-04-21T13:53:17.185Z,2.08
2023-04-21T13:56:06.521Z,2.38
2023-04-21T13:58:58.061Z,1.80
2023-04-21T14:01:51.538Z,2.13
2023-04-21T14:04:41.540Z,1.90
2023-04-21T14:07:30.324Z,1.70
2023-04-21T14:10:18.686Z,1.50
2023-04-21T14:13:07.274Z,1.90
2023-04-21T14:15:55.358Z,1.70
2023-04-21T14:18:45.588Z,1.45
2023-04-21T14:21:35.435Z,1.67
2023-04-21T14:24:29.328Z,1.90
2023-04-21T14:27:23.518Z,1.60
2023-04-21T14:30:18.732Z,1.70
2023-04-21T14:33:27.260Z,1.60
2023-04-21T14:36:30.387Z,1.90
2023-04-21T14:39:33.999Z,2.13
2023-04-21T14:42:26.385Z,1.75
2023-04-21T14:45:25.834Z,1.85
2023-04-21T14:48:20.331Z,1.77
2023-04-21T14:51:36.382Z,1.58
2023-04-21T14:54:28.747Z,1.77
2023-04-21T14:57:21.266Z,1.50
2023-04-21T15:00:15.843Z,1.63
2023-04-21T15:03:12.319Z,2.33
2023-04-21T15:06:10.571Z,1.50
2023-04-21T15:09:02.497Z,2.30
2023-04-21T15:11:53.344Z,1.50
2023-04-21T15:14:41.915Z,1.45
2023-04-21T15:17:30.504Z,1.40
2023-04-21T15:20:20.813Z,1.60
2023-04-21T15:23:13.398Z,1.40
2023-04-21T15:26:01.364Z,1.60
2023-04-21T15:28:51.140Z,1.60
2023-04-21T15:31:39.113Z,1.42
2023-04-21T15:34:34.227Z,1.50
2023-04-21T15:37:27.891Z,1.60
2023-04-21T15:40:21.135Z,1.40
2023-04-21T15:43:13.880Z,1.75
2023-04-21T15:46:15.001Z,1.55
2023-04-21T15:49:11.576Z,1.55
2023-04-21T15:52:09.495Z,1.48
2023-04-21T15:55:13.913Z,1.38
2023-04-21T15:58:08.089Z,1.30
2023-04-21T16:01:04.573Z,1.60
2023-04-21T16:04:00.351Z,1.52
2023-04-21T16:07:07.701Z,1.85
2023-04-21T16:09:58.837Z,1.80
2023-04-21T16:13:03.265Z,2.03
2023-04-21T16:15:56.095Z,1.70
2023-04-21T16:18:47.130Z,1.92
2023-04-21T16:21:46.471Z,1.35
2023-04-21T16:24:40.698Z,1.70
2023-04-21T16:27:39.770Z,1.70
2023-04-21T16:30:36.614Z,1.52
2023-04-21T16:33:32.135Z,2.10
2023-04-21T16:36:29.567Z,1.88
2023-04-21T16:39:25.224Z,1.70
2023-04-21T16:42:18.956Z,1.45
2023-04-21T16:45:13.777Z,1.65
2023-04-21T16:48:04.371Z,2.05
2023-04-21T16:51:04.685Z,2.00
2023-04-21T16:53:57.264Z,1.63
2023-04-21T16:56:59.504Z,2.30
2023-04-21T16:59:55.323Z,1.63
2023-04-21T17:02:50.318Z,1.70
2023-04-21T17:05:42.967Z,1.90
2023-04-21T17:11:38.097Z,1.90
2023-04-21T17:14:35.622Z,1.95
2023-04-21T17:17:33.837Z,2.05
2023-04-21T17:20:27.166Z,2.30
2023-04-21T17:23:23.323Z,1.85
2023-04-21T17:26:18.818Z,2.28
2023-04-21T17:29:10.384Z,1.83
2023-04-21T17:32:05.731Z,2.17
2023-04-21T17:35:07.997Z,2.00
2023-04-21T17:38:05.970Z,2.50
2023-04-21T17:40:56.177Z,2.05
2023-04-21T17:43:50.050Z,2.28
2023-04-21T17:46:45.029Z,2.03
2023-04-21T17:49:36.759Z,2.40
2023-04-21T17:52:31.400Z,2.40
2023-04-21T17:55:30.682Z,2.55
2023-04-21T17:58:23.614Z,2.40
2023-04-21T18:01:16.218Z,2.35
2023-04-21T18:04:31.031Z,2.58
2023-04-21T18:07:28.735Z,2.30
2023-04-21T18:10:22.045Z,2.45
2023-04-21T18:13:13.001Z,2.58
2023-04-21T18:16:03.151Z,2.58
2023-04-21T18:18:56.928Z,2.90
2023-04-21T18:21:53.155Z,3.70
2023-04-21T18:24:51.759Z,3.20
2023-04-21T18:27:44.693Z,3.10
2023-04-21T18:30:34.106Z,3.95
2023-04-21T18:33:27.043Z,2.95
2023-04-21T18:36:20.062Z,3.47
2023-04-21T18:39:12.908Z,3.67
2023-04-21T18:42:15.106Z,3.10
2023-04-21T18:45:08.443Z,3.38
2023-04-21T18:48:00.301Z,3.45
2023-04-21T18:51:02.011Z,3.13
2023-04-21T18:53:53.727Z,3.00
2023-04-21T18:56:45.165Z,3.13
2023-04-21T18:59:37.317Z,3.30
2023-04-21T19:02:30.565Z,3.10
2023-04-21T19:05:37.093Z,3.50
2023-04-21T19:08:42.287Z,3.30
2023-04-21T19:11:35.903Z,3.47
2023-04-21T19:14:39.451Z,3.70
2023-04-21T19:17:45.442Z,3.70
2023-04-21T19:20:36.617Z,4.10
2023-04-21T19:23:38.257Z,3.90
2023-04-21T19:26:30.158Z,3.38
2023-04-21T19:29:31.318Z,2.67
2023-04-21T19:32:28.613Z,2.28
2023-04-21T19:35:25.545Z,1.42
2023-04-21T19:38:26.473Z,1.17
2023-04-21T19:41:19.072Z,1.00
2023-04-21T19:44:17.394Z,1.00
2023-04-21T19:47:08.524Z,0.60
2023-04-21T19:50:07.767Z,0.40
2023-04-21T19:53:02.293Z,0.50
2023-04-21T19:55:52.764Z,0.60
2023-04-21T19:58:46.705Z,0.60
2023-04-21T20:04:39.764Z,0.60
2023-04-21T20:07:30.407Z,0.90
2023-04-21T20:10:24.894Z,0.70
2023-04-21T20:13:16.219Z,0.43
2023-04-21T20:16:12.511Z,0.70
2023-04-21T20:19:05.708Z,0.47
2023-04-21T20:21:59.908Z,0.80
2023-04-21T20:24:54.448Z,0.70
2023-04-21T20:27:51.142Z,0.70
2023-04-21T20:30:43.097Z,0.50
2023-04-21T20:33:37.761Z,0.55
2023-04-21T20:36:30.644Z,0.50
2023-04-21T20:39:22.800Z,0.68
2023-04-21T20:42:19.547Z,1.20
2023-04-21T20:45:17.865Z,0.73
2023-04-21T20:48:09.106Z,0.80
2023-04-21T20:51:03.285Z,1.00
2023-04-21T20:53:52.837Z,1.40
2023-04-21T20:56:43.821Z,1.17
2023-04-21T20:59:44.693Z,1.00
2023-04-21T21:02:39.520Z,1.38
2023-04-21T21:05:35.020Z,0.98
2023-04-21T21:08:34.054Z,1.00
2023-04-21T21:11:28.198Z,0.70
2023-04-21T21:14:22.019Z,0.75
2023-04-21T21:17:13.547Z,1.10
2023-04-21T21:20:11.644Z,1.00
2023-04-21T21:23:01.270Z,1.48
2023-04-21T21:25:52.277Z,1.40
2023-04-21T21:28:43.861Z,1.33
2023-04-21T21:31:31.813Z,1.40
2023-04-21T21:34:19.446Z,1.08
2023-04-21T21:37:08.722Z,1.35
2023-04-21T21:39:56.345Z,1.10
2023-04-21T21:42:44.088Z,1.40
2023-04-21T21:45:32.159Z,1.35
2023-04-21T21:48:19.621Z,1.65
2023-04-21T21:51:07.135Z,1.45
2023-04-21T21:53:56.349Z,1.27
2023-04-21T21:56:44.993Z,1.55
2023-04-21T21:59:33.032Z,1.55
2023-04-21T22:02:20.423Z,1.30
2023-04-21T22:05:09.421Z,1.50
2023-04-21T22:07:57.096Z,1.48
2023-04-21T22:10:46.670Z,1.30
2023-04-21T22:13:34.548Z,1.23
2023-04-21T22:16:22.717Z,1.65
2023-04-21T22:19:10.765Z,1.88
2023-04-21T22:21:58.447Z,1.58
2023-04-21T22:24:46.015Z,1.30
2023-04-21T22:27:36.337Z,1.73
2023-04-21T22:30:24.164Z,2.38
2023-04-21T22:33:12.087Z,2.10
2023-04-21T22:35:59.926Z,2.17
2023-04-21T22:38:47.613Z,2.10
2023-04-21T22:41:35.409Z,2.40
2023-04-21T22:44:24.823Z,2.30
2023-04-21T22:47:13.347Z,2.70
2023-04-21T22:50:00.850Z,2.17
2023-04-21T22:52:48.938Z,2.50
2023-04-21T22:55:36.581Z,2.38
2023-04-21T22:58:24.440Z,2.33
2023-04-21T23:01:13.805Z,2.40
2023-04-21T23:04:01.612Z,2.60
2023-04-21T23:06:50.090Z,2.35
2023-04-21T23:09:38.400Z,3.08
2023-04-21T23:12:26.540Z,2.60
2023-04-21T23:15:14.138Z,2.35
2023-04-21T23:18:03.515Z,2.50
2023-04-21T23:20:50.865Z,1.95
2023-04-21T23:23:38.808Z,2.05
2023-04-21T23:26:25.988Z,2.00
2023-04-21T23:29:13.476Z,2.00
2023-04-21T23:32:01.759Z,2.28
2023-04-21T23:34:50.950Z,2.33
2023-04-21T23:37:38.775Z,2.35
2023-04-21T23:40:26.519Z,2.70
2023-04-21T23:43:14.267Z,2.45
2023-04-21T23:46:02.197Z,1.90
2023-04-21T23:48:50.002Z,1.80
2023-04-21T23:51:39.072Z,2.17
2023-04-21T23:54:26.964Z,1.95
2023-04-21T23:57:14.747Z,1.70
